Lamont, CA

6:25 PM PDT on October 24, 2014 (GMT -0700)
Meadows | Change Station
CLOSE
Current Station
Airport
Location: Bakersfield,
Elevation: 492 ft
Nearby Weather Stations

Elev 492 ft 35.43 °N, 119.05 °W | Updated 31 minutes ago

Clear
Clear
79 °F
Feels Like 79 °F
N
5
Wind Variable Wind from West

Today
High -- | Low -- °F
--% Chance of Precip.
Yesterday
High -- | Low -- °F
Precip. -- in
7:09 AM 6:09 PM
New Moon, 1% visible
Pressure 29.86 in
Visibility 5.0 miles
Clouds Clear
Dew Point 50 °F
Humidity 36%
Rainfall 0.00 in
Snow Depth Not available.
UV 0 out of 12
Pollen 4.10 out of 12
Ozone Unhealthy for Sensitive Groups
PM2.5 Moderate
Flu Activity Sporadic
METAR KBFL 250054Z 26004KT 5SM HZ CLR 26/10 A2987 RMK AO2 SLP111 T02610100

More Conditions Fewer Conditions

Pressure 29.86 in
Visibility 5.0 miles
Clouds Clear
Dew Point 50 °F
Humidity 36%
Rainfall 0.00 in
Snow Depth Not available.
UV 0 out of 12
Pollen 4.10 out of 12
Ozone Unhealthy for Sensitive Groups
PM2.5 Moderate
Flu Activity Sporadic
METAR KBFL 250054Z 26004KT 5SM HZ CLR 26/10 A2987 RMK AO2 SLP111 T02610100

More Conditions Fewer Conditions

10-Day Weather Forecast

Almanac

Astronomy

Oct. 24, 2014 Rise Set
Actual Time 7:09 AM PDT 6:09 PM PDT
Civil Twilight 6:43 AM PDT 6:35 PM PDT
Nautical Twilight 6:14 AM PDT 7:04 PM PDT
Astronomical Twilight 5:44 AM PDT 7:34 PM PDT
Moon 7:52 AM PDT (10/24) 6:54 PM PDT (10/24)
Length of Visible Light 11h 51m
Length of Day
10h 59m
Tomorrow will be 2m 2s shorter.
New Moon, 1% of the Moon is Illuminated
Today
New Moon
Oct 30
First Quarter
Nov 6
Full
Nov 14
Last Quarter
Nov 22
New

Today's Extremes

State Highs State Lows

Community

WunderPhotos

Upload Photos

1,764,741 photos uploaded!

WunderBlogs® & News

Nearby

Air Quality

  Air Quality AQ Index Pollutant
Yesterday Moderate
OZONE
Yesterday Moderate
PM2.5
Current Unhealthy for Sensitive Groups
OZONE
Current Moderate
PM2.5
Friday Moderate
OZONE
Saturday Moderate
OZONE
Sunday Good
OZONE
Monday Good
OZONE
Tuesday Moderate
OZONE
Wednesday Moderate
OZONE

Snow Depth

Station Depth Elevation
Leavitt Meadows 0 in 7200 ft
Summit Meadow 0 in 9122 ft
Echo Peak 0 in 7800 ft
Ward Creek #3 12 in 6750 ft
Adin Mountain 1 in 6200 ft

Earthquake Activity

City Distance Mag. Time & Date
Brea, California 108 miles 2.9 3:35 PM PDT
2014-10-23
Brea, California 108 miles 2.8 3:34 PM PDT
2014-10-23
Corona, California 119 miles 2.5 1:09 PM PDT
2014-10-23
Solvang, California 91 miles 2.6 5:35 PM PDT
2014-10-22
Minimum magnitude displayed is 2.5.

Coastal Water Temperatures

Place Temperature
No Stations Reporting

Nearby Weather Stations